Wilson Mersin — P3PA6 — position and weather

sailwx.info

Track history (hours):
 
Tides and Currents Weather Stations Pressure Air Temp Water Temp Dewpoint Dewpoint Depression Visibility Wind Speed Wind Dir Waves Ship Positions

Wilson Mersin

Last reported at 2016-Aug-26 20:31 UTC. Time now 2016-Aug-27 18:50 UTC.
Position N 53°21' E 002°45'.

Length 107 m; draft 6.7 m.

Type: Cargo ship. MMSI: 210072000.

Date/timePositionNaut miles runAvg speedWind from/ knotsBaromVisibWave heightAir tempDewpointWater temp
2016-Aug-26 20:31N 53°21' E 002°45'1513.3
2016-Aug-26 19:24N 53°12' E 003°06'1413.2
2016-Aug-26 18:22N 53°05' E 003°25'1012.6
2016-Aug-26 17:32N 52°57' E 003°37'1212.1
2016-Aug-26 16:33N 52°48' E 003°49'1212.0
2016-Aug-26 15:33N 52°39' E 004°02'1111.5
2016-Aug-26 14:33N 52°31' E 004°15'1211.7
2016-Aug-26 13:34N 52°28' E 004°33'2 2.5
2016-Aug-26 12:33N 52°28' E 004°37'5 5.1
2016-Aug-26 11:33N 52°26' E 004°45'2 2.0
2016-Aug-26 10:33N 52°24' E 004°47'0 0.0
2016-Aug-26 09:33N 52°24' E 004°47'0 0.0
2016-Aug-26 08:33N 52°24' E 004°47'0 0.0
2016-Aug-26 07:33N 52°24' E 004°47'0 0.0
2016-Aug-26 06:30N 52°24' E 004°47'0 0.0
2016-Aug-26 04:33N 52°24' E 004°47'0 0.0
2016-Aug-26 03:33N 52°24' E 004°47'0 0.0
2016-Aug-26 02:33N 52°24' E 004°47'0 0.0
2016-Aug-26 01:33N 52°24' E 004°47'0 0.0
2016-Aug-26 00:33N 52°24' E 004°47'0 0.0
2016-Aug-25 23:33N 52°24' E 004°47'0 0.0
2016-Aug-25 22:33N 52°24' E 004°47'0 0.0
2016-Aug-25 21:33N 52°24' E 004°47'0 0.0
2016-Aug-25 20:33N 52°24' E 004°47'0 0.0
2016-Aug-25 19:33N 52°24' E 004°47'0 0.0
2016-Aug-25 18:33N 52°24' E 004°47'0 0.1
2016-Aug-25 17:33N 52°24' E 004°47'0 0.0
2016-Aug-25 16:30N 52°24' E 004°47'0 0.0
2016-Aug-25 15:30N 52°24' E 004°47'0 0.0
2016-Aug-25 14:30N 52°24' E 004°47'0 0.0
2016-Aug-25 13:33N 52°24' E 004°47'0 0.0
2016-Aug-25 12:27N 52°24' E 004°47'0 0.0
2016-Aug-25 11:33N 52°24' E 004°47'0 0.0
2016-Aug-25 10:30N 52°24' E 004°47'0 0.0
2016-Aug-25 09:30N 52°24' E 004°47'0 0.0
2016-Aug-25 08:33N 52°24' E 004°47'0 0.0
2016-Aug-25 07:30N 52°24' E 004°47'0 0.0
2016-Aug-25 06:33N 52°24' E 004°47'0 0.0
2016-Aug-25 04:33N 52°24' E 004°47'0 0.0
2016-Aug-25 03:30N 52°24' E 004°47'0 0.0
2016-Aug-25 02:33N 52°24' E 004°47'0 0.0
2016-Aug-25 01:33N 52°24' E 004°47'0 0.0
2016-Aug-25 00:33N 52°24' E 004°47'6 6.1
2016-Aug-24 23:33N 52°28' E 004°39'1 1.5
2016-Aug-24 22:33N 52°28' E 004°37'5 5.5
2016-Aug-24 21:33N 52°28' E 004°28'10 9.9
2016-Aug-24 20:33N 52°29' E 004°11'1110.6
2016-Aug-24 19:33N 52°26' E 003°55'1110.6
2016-Aug-24 18:33N 52°15' E 003°53'1111.1
2016-Aug-24 17:33N 52°04' E 003°56'1111.2
2016-Aug-24 16:33N 51°57' E 004°10'1110.8
2016-Aug-24 15:33N 51°51' E 004°23'1010.2
2016-Aug-24 14:34N 51°46' E 004°38'4 3.5
2016-Aug-24 13:26N 51°42' E 004°36'0 0.0
2016-Aug-24 11:32N 51°42' E 004°36'0 0.0
2016-Aug-24 04:29N 51°42' E 004°36'0 0.0
2016-Aug-24 03:20N 51°42' E 004°36'0 0.0
2016-Aug-24 00:08N 51°42' E 004°36'0 0.0
2016-Aug-23 23:20N 51°42' E 004°36'0 0.0
2016-Aug-23 22:32N 51°42' E 004°36'0 0.0
2016-Aug-23 21:08N 51°42' E 004°36'0 0.0
2016-Aug-23 20:29N 51°42' E 004°36'0 0.0
2016-Aug-23 19:29N 51°42' E 004°36'0 0.0
2016-Aug-23 18:29N 51°42' E 004°36'0 0.0
2016-Aug-23 17:29N 51°42' E 004°36'0 0.0
2016-Aug-23 15:32N 51°42' E 004°36'0 0.0
2016-Aug-23 14:26N 51°42' E 004°36'0 0.0
2016-Aug-23 13:26N 51°42' E 004°36'0 0.0
2016-Aug-23 11:31N 51°42' E 004°36'5 5.1
2016-Aug-23 10:33N 51°47' E 004°38'7 7.0
2016-Aug-23 09:33N 51°50' E 004°28'7 7.0
2016-Aug-23 08:33N 51°54' E 004°18'6 5.5
2016-Aug-23 07:33N 51°57' E 004°11'6 5.8
2016-Aug-23 06:33N 51°59' E 004°03'6 6.0
2016-Aug-23 05:33N 52°02' E 003°54'8 7.5
2016-Aug-23 04:32N 52°08' E 003°46'9 8.5
2016-Aug-23 03:26N 52°17' E 003°47'8 8.5
2016-Aug-23 02:33N 52°25' E 003°50'1211.1
2016-Aug-23 01:26N 52°37' E 003°53'1212.8
2016-Aug-23 00:32N 52°48' E 003°57'1212.0
2016-Aug-22 23:32N 52°59' E 004°05'6610.6
2016-Aug-22 17:21N 53°58' E 004°54'5311.1
2016-Aug-22 12:33N 54°51' E 004°51'1211.6
2016-Aug-22 11:33N 55°03' E 004°49'1211.5
2016-Aug-22 10:33N 55°14' E 004°48'19810.3
2016-Aug-21 15:21N 58°32' E 004°41'  
Track history (hours):
 
Tides and Currents Weather Stations Pressure Air Temp Water Temp Dewpoint Dewpoint Depression Visibility Wind Speed Wind Dir Waves Ship Positions

Wilson Mersin

Last reported at 2016-Aug-26 20:31 UTC. Time now 2016-Aug-27 18:50 UTC.
Position N 53°21' E 002°45'.

Length 107 m; draft 6.7 m.

Type: Cargo ship. MMSI: 210072000.

Date/timePositionNaut miles runAvg speedWind from/ knotsBaromVisibWave heightAir tempDewpointWater temp
2016-Aug-26 20:31N 53°21' E 002°45'1513.3
2016-Aug-26 19:24N 53°12' E 003°06'1413.2
2016-Aug-26 18:22N 53°05' E 003°25'1012.6
2016-Aug-26 17:32N 52°57' E 003°37'1212.1
2016-Aug-26 16:33N 52°48' E 003°49'1212.0
2016-Aug-26 15:33N 52°39' E 004°02'1111.5
2016-Aug-26 14:33N 52°31' E 004°15'1211.7
2016-Aug-26 13:34N 52°28' E 004°33'2 2.5
2016-Aug-26 12:33N 52°28' E 004°37'5 5.1
2016-Aug-26 11:33N 52°26' E 004°45'2 2.0
2016-Aug-26 10:33N 52°24' E 004°47'0 0.0
2016-Aug-26 09:33N 52°24' E 004°47'0 0.0
2016-Aug-26 08:33N 52°24' E 004°47'0 0.0
2016-Aug-26 07:33N 52°24' E 004°47'0 0.0
2016-Aug-26 06:30N 52°24' E 004°47'0 0.0
2016-Aug-26 04:33N 52°24' E 004°47'0 0.0
2016-Aug-26 03:33N 52°24' E 004°47'0 0.0
2016-Aug-26 02:33N 52°24' E 004°47'0 0.0
2016-Aug-26 01:33N 52°24' E 004°47'0 0.0
2016-Aug-26 00:33N 52°24' E 004°47'0 0.0
2016-Aug-25 23:33N 52°24' E 004°47'0 0.0
2016-Aug-25 22:33N 52°24' E 004°47'0 0.0
2016-Aug-25 21:33N 52°24' E 004°47'0 0.0
2016-Aug-25 20:33N 52°24' E 004°47'0 0.0
2016-Aug-25 19:33N 52°24' E 004°47'0 0.0
2016-Aug-25 18:33N 52°24' E 004°47'0 0.1
2016-Aug-25 17:33N 52°24' E 004°47'0 0.0
2016-Aug-25 16:30N 52°24' E 004°47'0 0.0
2016-Aug-25 15:30N 52°24' E 004°47'0 0.0
2016-Aug-25 14:30N 52°24' E 004°47'0 0.0
2016-Aug-25 13:33N 52°24' E 004°47'0 0.0
2016-Aug-25 12:27N 52°24' E 004°47'0 0.0
2016-Aug-25 11:33N 52°24' E 004°47'0 0.0
2016-Aug-25 10:30N 52°24' E 004°47'0 0.0
2016-Aug-25 09:30N 52°24' E 004°47'0 0.0
2016-Aug-25 08:33N 52°24' E 004°47'0 0.0
2016-Aug-25 07:30N 52°24' E 004°47'0 0.0
2016-Aug-25 06:33N 52°24' E 004°47'0 0.0
2016-Aug-25 04:33N 52°24' E 004°47'0 0.0
2016-Aug-25 03:30N 52°24' E 004°47'0 0.0
2016-Aug-25 02:33N 52°24' E 004°47'0 0.0
2016-Aug-25 01:33N 52°24' E 004°47'0 0.0
2016-Aug-25 00:33N 52°24' E 004°47'6 6.1
2016-Aug-24 23:33N 52°28' E 004°39'1 1.5
2016-Aug-24 22:33N 52°28' E 004°37'5 5.5
2016-Aug-24 21:33N 52°28' E 004°28'10 9.9
2016-Aug-24 20:33N 52°29' E 004°11'1110.6
2016-Aug-24 19:33N 52°26' E 003°55'1110.6
2016-Aug-24 18:33N 52°15' E 003°53'1111.1
2016-Aug-24 17:33N 52°04' E 003°56'1111.2
2016-Aug-24 16:33N 51°57' E 004°10'1110.8
2016-Aug-24 15:33N 51°51' E 004°23'1010.2
2016-Aug-24 14:34N 51°46' E 004°38'4 3.5
2016-Aug-24 13:26N 51°42' E 004°36'0 0.0
2016-Aug-24 11:32N 51°42' E 004°36'0 0.0
2016-Aug-24 04:29N 51°42' E 004°36'0 0.0
2016-Aug-24 03:20N 51°42' E 004°36'0 0.0
2016-Aug-24 00:08N 51°42' E 004°36'0 0.0
2016-Aug-23 23:20N 51°42' E 004°36'0 0.0
2016-Aug-23 22:32N 51°42' E 004°36'0 0.0
2016-Aug-23 21:08N 51°42' E 004°36'0 0.0
2016-Aug-23 20:29N 51°42' E 004°36'0 0.0
2016-Aug-23 19:29N 51°42' E 004°36'0 0.0
2016-Aug-23 18:29N 51°42' E 004°36'0 0.0
2016-Aug-23 17:29N 51°42' E 004°36'0 0.0
2016-Aug-23 15:32N 51°42' E 004°36'0 0.0
2016-Aug-23 14:26N 51°42' E 004°36'0 0.0
2016-Aug-23 13:26N 51°42' E 004°36'0 0.0
2016-Aug-23 11:31N 51°42' E 004°36'5 5.1
2016-Aug-23 10:33N 51°47' E 004°38'7 7.0
2016-Aug-23 09:33N 51°50' E 004°28'7 7.0
2016-Aug-23 08:33N 51°54' E 004°18'6 5.5
2016-Aug-23 07:33N 51°57' E 004°11'6 5.8
2016-Aug-23 06:33N 51°59' E 004°03'6 6.0
2016-Aug-23 05:33N 52°02' E 003°54'8 7.5
2016-Aug-23 04:32N 52°08' E 003°46'9 8.5
2016-Aug-23 03:26N 52°17' E 003°47'8 8.5
2016-Aug-23 02:33N 52°25' E 003°50'1211.1
2016-Aug-23 01:26N 52°37' E 003°53'1212.8
2016-Aug-23 00:32N 52°48' E 003°57'1212.0
2016-Aug-22 23:32N 52°59' E 004°05'6610.6
2016-Aug-22 17:21N 53°58' E 004°54'5311.1
2016-Aug-22 12:33N 54°51' E 004°51'1211.6
2016-Aug-22 11:33N 55°03' E 004°49'1211.5
2016-Aug-22 10:33N 55°14' E 004°48'19810.3
2016-Aug-21 15:21N 58°32' E 004°41'  

Dump ship's entire track history